Time;durP1;ratioP1;P1;durP2;ratioP2;P2;SDS_P1;SDS_P2;PMS_P1;PMS_P2;Temp;Humidity;BMP_temperature;BMP_pressure;BME280_temperature;BME280_humidity;BME280_pressure;Samples;Min_cycle;Max_cycle;Signal;HPM_P1;HPM_P2
2022/01/02 00:01:02;;;;;;;49.90;22.33;;;6.20;99.90;;;;;;5018401;28;20014;-77
2022/01/02 00:03:35;;;;;;;55.20;20.58;;;6.20;99.90;;;;;;5011626;28;20033;-78
2022/01/02 00:06:03;;;;;;;96.70;21.08;;;6.20;99.90;;;;;;5019275;28;20503;-78
2022/01/02 00:08:31;;;;;;;83.93;21.65;;;6.20;99.90;;;;;;5007427;28;20077;-78
2022/01/02 00:11:03;;;;;;;56.50;20.50;;;6.20;99.90;;;;;;5022197;28;20032;-78
2022/01/02 00:13:36;;;;;;;50.75;20.08;;;6.20;99.90;;;;;;5014894;28;20014;-78
2022/01/02 00:16:12;;;;;;;54.13;21.40;;;6.20;99.90;;;;;;5018543;28;20071;-77
2022/01/02 00:18:47;;;;;;;80.03;19.90;;;6.20;99.90;;;;;;5019766;28;20030;-77
2022/01/02 00:21:22;;;;;;;61.88;20.15;;;6.20;99.90;;;;;;5011772;28;20038;-77
2022/01/02 00:23:58;;;;;;;62.20;19.30;;;6.20;99.90;;;;;;5015134;28;20042;-78
2022/01/02 00:26:36;;;;;;;89.05;20.15;;;6.10;99.90;;;;;;5017378;28;20029;-77
2022/01/02 00:29:14;;;;;;;77.20;19.75;;;6.20;99.90;;;;;;5028263;28;20546;-77
2022/01/02 00:32:08;;;;;;;61.67;18.75;;;6.20;99.90;;;;;;5010769;28;20543;-77
2022/01/02 00:34:38;;;;;;;63.67;19.40;;;6.20;99.90;;;;;;5009723;28;20105;-77
2022/01/02 00:37:10;;;;;;;56.55;19.30;;;6.20;99.90;;;;;;5024898;28;20029;-78
2022/01/02 00:39:37;;;;;;;;;;;6.10;99.90;;;;;;5023962;28;20056;-77
2022/01/02 00:42:11;;;;;;;70.78;18.52;;;6.10;99.90;;;;;;5018219;28;19964;-77
2022/01/02 00:44:42;;;;;;;64.13;18.48;;;6.10;99.90;;;;;;5032543;28;20025;-77
2022/01/02 00:47:23;;;;;;;146.00;19.13;;;6.10;99.90;;;;;;5027095;28;20116;-77
2022/01/02 00:50:09;;;;;;;77.15;17.73;;;6.10;99.90;;;;;;5027658;28;20380;-77
2022/01/02 00:52:44;;;;;;;153.63;21.13;;;6.00;99.90;;;;;;5012790;28;20038;-78
2022/01/02 00:55:25;;;;;;;194.48;20.67;;;6.00;99.90;;;;;;5036007;28;20036;-77
2022/01/02 00:57:57;;;;;;;222.43;22.17;;;6.00;99.90;;;;;;5034910;28;20014;-78
2022/01/02 01:00:26;;;;;;;95.43;18.63;;;5.90;99.90;;;;;;5023067;28;20057;-78
2022/01/02 01:03:00;;;;;;;246.57;23.45;;;5.90;99.90;;;;;;5017929;28;20033;-77
2022/01/02 01:05:35;;;;;;;350.55;23.52;;;5.80;99.90;;;;;;5041556;28;20032;-77
2022/01/02 01:08:06;;;;;;;210.48;22.80;;;5.60;99.90;;;;;;5035042;28;20423;-77
2022/01/02 01:10:40;;;;;;;128.60;19.92;;;5.50;99.90;;;;;;5042041;28;20036;-77
2022/01/02 01:13:09;;;;;;;300.58;24.30;;;5.50;99.90;;;;;;5020551;28;20030;-77
2022/01/02 01:15:38;;;;;;;66.90;17.17;;;5.50;99.90;;;;;;5046521;28;20017;-77
2022/01/02 01:18:10;;;;;;;116.72;21.73;;;5.50;99.90;;;;;;5039762;28;20514;-77
2022/01/02 01:20:41;;;;;;;74.85;19.70;;;5.50;99.90;;;;;;5035776;28;20036;-77
2022/01/02 01:23:40;;;;;;;;;;;;;;;;;;;;;
2022/01/02 01:26:07;;;;;;;65.10;19.45;;;5.60;99.90;;;;;;5041513;28;20095;-77
2022/01/02 01:28:42;;;;;;;74.20;18.95;;;5.70;99.90;;;;;;5044379;28;20121;-77
2022/01/02 01:31:18;;;;;;;150.07;19.10;;;5.60;99.90;;;;;;5040419;28;20039;-77
2022/01/02 01:33:49;;;;;;;211.07;19.52;;;5.70;99.90;;;;;;5045571;28;20021;-77
2022/01/02 01:36:16;;;;;;;55.65;16.50;;;5.60;99.90;;;;;;5041532;28;20403;-77
2022/01/02 01:38:48;;;;;;;73.75;16.90;;;5.60;99.90;;;;;;5033602;28;20022;-77
2022/01/02 01:41:54;;;;;;;144.80;18.90;;;5.60;99.90;;;;;;5040605;28;20029;-77
2022/01/02 01:45:02;;;;;;;;;;;;;;;;;;;;;
2022/01/02 01:47:15;;;;;;;177.50;23.52;;;5.30;99.90;;;;;;5001838;28;20034;-77
2022/01/02 01:50:01;;;;;;;242.35;25.10;;;5.20;99.90;;;;;;5002392;28;20026;-77
2022/01/02 01:52:48;;;;;;;57.63;17.73;;;5.30;99.90;;;;;;5001666;28;20124;-78
2022/01/02 01:58:44;;;;;;;209.82;23.42;;;5.50;99.90;;;;;;4906924;28;20051;-77
2022/01/02 02:01:17;;;;;;;111.85;18.90;;;5.50;99.90;;;;;;5018969;28;20079;-77
2022/01/02 02:03:50;;;;;;;161.02;20.17;;;5.60;99.90;;;;;;5024659;28;20038;-78
2022/01/02 02:06:21;;;;;;;240.65;24.52;;;5.60;99.90;;;;;;5009823;28;20033;-78
2022/01/02 02:08:53;;;;;;;134.90;18.65;;;5.60;99.90;;;;;;5013926;28;20025;-77
2022/01/02 02:11:28;;;;;;;158.20;18.92;;;5.50;99.90;;;;;;5012211;28;20029;-77
2022/01/02 02:13:58;;;;;;;66.57;15.85;;;5.50;99.90;;;;;;4991293;28;20030;-77
2022/01/02 02:16:45;;;;;;;260.58;21.05;;;5.40;99.90;;;;;;5019547;28;20472;-76
2022/01/02 02:20:00;;;;;;;353.77;24.35;;;5.30;99.90;;;;;;5030484;28;20042;-77
2022/01/02 02:22:31;;;;;;;369.73;25.90;;;5.00;99.90;;;;;;5018918;28;20037;-77
2022/01/02 02:25:00;;;;;;;520.27;35.33;;;4.70;99.90;;;;;;5014632;28;20033;-77
2022/01/02 02:27:42;;;;;;;;;;;;;;;;;;;;;
2022/01/02 02:31:03;;;;;;;532.38;43.40;;;4.50;99.90;;;;;;5014047;28;20032;-76
2022/01/02 02:40:49;;;;;;;695.45;55.28;;;4.40;99.90;;;;;;4865153;29;20135;-77
2022/01/02 02:51:01;;;;;;;;;;;;;;;;;;;;;
2022/01/02 03:07:17;;;;;;;190.75;51.30;;;5.20;99.90;;;;;;4990410;28;20041;-77
2022/01/02 03:10:00;;;;;;;130.15;49.13;;;5.40;99.90;;;;;;4979350;28;20038;-77
2022/01/02 03:12:59;;;;;;;150.15;50.42;;;5.60;99.90;;;;;;4992021;28;20038;-77
2022/01/02 03:22:07;;;;;;;170.48;25.52;;;5.40;99.90;;;;;;4978828;28;20046;-77
2022/01/02 03:25:24;;;;;;;;;;;;;;;;;;;;;
2022/01/02 03:28:26;;;;;;;50.00;18.60;;;5.30;99.90;;;;;;5030058;28;20622;-77
2022/01/02 03:31:20;;;;;;;81.03;17.58;;;5.30;99.90;;;;;;5038896;28;20535;-79
2022/01/02 03:37:33;;;;;;;93.80;17.00;;;5.30;99.90;;;;;;5032463;28;20539;-78
2022/01/02 03:40:21;;;;;;;78.32;14.95;;;5.30;99.90;;;;;;5020533;28;20037;-78
2022/01/02 03:43:01;;;;;;;178.38;17.17;;;5.30;99.90;;;;;;4996419;28;20046;-78
2022/01/02 03:45:30;;;;;;;137.48;17.95;;;5.30;99.90;;;;;;5034086;28;20037;-78
2022/01/02 03:48:02;;;;;;;41.90;13.80;;;5.30;99.90;;;;;;5007391;28;20113;-78
2022/01/02 03:50:58;;;;;;;154.45;16.40;;;5.30;99.90;;;;;;5027893;28;20030;-78
2022/01/02 03:53:28;;;;;;;100.82;18.55;;;5.30;99.90;;;;;;5011561;28;20403;-76
2022/01/02 03:55:54;;;;;;;148.85;16.63;;;5.20;99.90;;;;;;5014514;28;20026;-76
2022/01/02 03:58:43;;;;;;;59.05;16.60;;;5.20;99.90;;;;;;5030938;28;20487;-76
2022/01/02 04:01:35;;;;;;;153.73;18.77;;;5.30;99.90;;;;;;5011080;28;20055;-76
2022/01/02 04:04:34;;;;;;;107.47;19.77;;;5.30;99.90;;;;;;5019937;28;20546;-76
2022/01/02 04:07:00;;;;;;;43.13;16.02;;;5.30;99.90;;;;;;5039172;28;20029;-77
2022/01/02 04:09:30;;;;;;;113.53;19.48;;;5.30;99.90;;;;;;5035488;28;20034;-76
2022/01/02 04:12:05;;;;;;;85.10;18.67;;;5.30;99.90;;;;;;5032472;28;20079;-76
2022/01/02 04:14:41;;;;;;;109.43;19.98;;;5.30;99.90;;;;;;5002698;28;20091;-76
2022/01/02 04:17:07;;;;;;;70.90;19.88;;;5.30;99.90;;;;;;5023548;28;20026;-76
2022/01/02 04:19:33;;;;;;;129.30;20.90;;;5.30;99.90;;;;;;5011213;28;20026;-76
2022/01/02 04:22:00;;;;;;;116.22;19.10;;;5.20;99.90;;;;;;5031951;28;20533;-77
2022/01/02 04:24:25;;;;;;;150.90;20.60;;;5.20;99.90;;;;;;5045280;28;20498;-76
2022/01/02 04:26:54;;;;;;;158.07;21.70;;;5.00;99.90;;;;;;5043775;28;20021;-76
2022/01/02 04:35:42;;;;;;;218.50;24.23;;;4.60;99.90;;;;;;5041379;28;20684;-79
2022/01/02 04:41:28;;;;;;;355.85;35.45;;;4.60;99.90;;;;;;5014303;28;20052;-79
2022/01/02 04:44:04;;;;;;;218.45;30.92;;;4.50;99.90;;;;;;5017336;28;20123;-78
2022/01/02 04:46:33;;;;;;;151.38;30.30;;;4.50;99.90;;;;;;5021048;28;20077;-78
2022/01/02 04:49:15;;;;;;;256.35;32.88;;;4.50;99.90;;;;;;5012245;28;20025;-78
2022/01/02 04:51:47;;;;;;;142.15;31.50;;;4.50;99.90;;;;;;5009098;28;20026;-79
2022/01/02 04:54:56;;;;;;;95.10;27.75;;;4.50;99.90;;;;;;4992040;28;20044;-79
2022/01/02 04:57:28;;;;;;;292.20;36.03;;;4.60;99.90;;;;;;5018084;28;20026;-79
2022/01/02 04:59:56;;;;;;;357.33;39.13;;;4.70;99.90;;;;;;4986096;28;20026;-79
2022/01/02 05:03:08;;;;;;;304.98;38.53;;;4.60;99.90;;;;;;4990351;28;20439;-79
2022/01/02 05:05:23;;;;;;;260.50;36.80;;;4.60;99.90;;;;;;4998360;28;20030;-79
2022/01/02 05:07:49;;;;;;;290.58;37.90;;;4.50;99.90;;;;;;5027909;28;20033;-79
2022/01/02 05:10:20;;;;;;;264.83;39.05;;;4.50;99.90;;;;;;5019804;28;20037;-79
2022/01/02 05:12:49;;;;;;;331.95;45.65;;;4.50;99.90;;;;;;5030218;28;20033;-79
2022/01/02 05:15:28;;;;;;;241.18;41.20;;;4.60;99.90;;;;;;4995526;28;20033;-80
2022/01/02 05:17:59;;;;;;;239.80;37.55;;;4.60;99.90;;;;;;4980044;28;20173;-79
2022/01/02 05:20:34;;;;;;;317.15;44.00;;;4.70;99.90;;;;;;5014826;28;20021;-79
2022/01/02 05:23:22;;;;;;;540.83;51.35;;;4.70;99.90;;;;;;5023019;28;20049;-79
2022/01/02 05:25:54;;;;;;;573.17;53.20;;;4.70;99.90;;;;;;5012212;28;20075;-79
2022/01/02 05:28:56;;;;;;;403.52;49.65;;;4.70;99.90;;;;;;5010810;28;20037;-78
2022/01/02 05:34:20;;;;;;;270.63;43.08;;;4.80;99.90;;;;;;5010889;28;20052;-79
2022/01/02 05:36:55;;;;;;;95.28;29.45;;;4.90;99.90;;;;;;4996705;28;20113;-79
2022/01/02 05:39:30;;;;;;;91.90;24.52;;;5.10;99.90;;;;;;5016364;28;20128;-79
2022/01/02 05:42:25;;;;;;;65.75;21.88;;;5.10;99.90;;;;;;4996382;28;20452;-79
2022/01/02 05:44:58;;;;;;;75.38;21.67;;;5.10;99.90;;;;;;5016886;28;20032;-79
2022/01/02 05:47:27;;;;;;;106.03;18.73;;;5.20;99.90;;;;;;5014270;28;20040;-79
2022/01/02 05:49:59;;;;;;;63.60;18.08;;;5.20;99.90;;;;;;5015531;28;20113;-78
2022/01/02 05:52:45;;;;;;;133.20;19.05;;;5.20;99.90;;;;;;5016744;28;20029;-79
2022/01/02 05:55:11;;;;;;;100.80;19.83;;;5.30;99.90;;;;;;5009667;28;20054;-79
2022/01/02 05:57:40;;;;;;;213.30;22.35;;;5.30;99.90;;;;;;5014360;28;20068;-79
2022/01/02 06:00:08;;;;;;;115.70;21.35;;;5.30;99.90;;;;;;5015145;28;20034;-79
2022/01/02 06:02:56;;;;;;;58.78;19.98;;;5.30;99.90;;;;;;5012825;28;20049;-79
2022/01/02 06:05:28;;;;;;;65.88;17.25;;;5.40;99.90;;;;;;4998594;28;20046;-79
2022/01/02 06:07:56;;;;;;;65.70;16.45;;;5.40;99.90;;;;;;5014137;28;20029;-79
2022/01/02 06:10:29;;;;;;;64.43;16.30;;;5.40;99.90;;;;;;5001337;28;20026;-79
2022/01/02 06:13:00;;;;;;;84.28;16.63;;;5.40;99.90;;;;;;5012511;28;20030;-78
2022/01/02 06:15:49;;;;;;;37.60;16.08;;;5.30;99.90;;;;;;5021370;28;20030;-79
2022/01/02 06:18:24;;;;;;;32.58;13.60;;;5.30;99.90;;;;;;5019553;28;20045;-79
2022/01/02 06:20:54;;;;;;;51.88;16.45;;;5.30;99.90;;;;;;5015566;28;20029;-79
2022/01/02 06:23:25;;;;;;;52.58;16.83;;;5.30;99.90;;;;;;5013308;28;20631;-79
2022/01/02 06:25:54;;;;;;;70.32;15.20;;;5.30;99.90;;;;;;5017671;28;20026;-79
2022/01/02 06:29:03;;;;;;;48.00;13.80;;;5.30;99.90;;;;;;5032795;28;20456;-79
2022/01/02 06:31:41;;;;;;;148.80;17.98;;;5.20;99.90;;;;;;5017841;28;20513;-79
2022/01/02 06:34:07;;;;;;;49.75;15.20;;;5.20;99.90;;;;;;5012141;28;20022;-79
2022/01/02 06:36:33;;;;;;;53.35;16.20;;;5.20;99.90;;;;;;4993391;28;20037;-79
2022/01/02 06:39:04;;;;;;;84.35;17.08;;;5.20;99.90;;;;;;5000092;28;20094;-79
2022/01/02 06:41:33;;;;;;;29.38;14.35;;;5.20;99.90;;;;;;5018260;28;20037;-78
2022/01/02 06:43:59;;;;;;;83.80;16.55;;;5.20;99.90;;;;;;5009834;28;20136;-79
2022/01/02 06:46:30;;;;;;;30.38;13.75;;;5.20;99.90;;;;;;5037644;28;20017;-79
2022/01/02 06:48:57;;;;;;;57.97;17.55;;;5.20;99.90;;;;;;5033992;28;20033;-79
2022/01/02 06:51:24;;;;;;;138.60;17.42;;;5.20;99.90;;;;;;5041640;28;20029;-79
2022/01/02 06:54:13;;;;;;;52.22;15.85;;;5.20;99.90;;;;;;5014017;28;20021;-79
2022/01/02 06:57:00;;;;;;;54.05;16.85;;;5.20;99.90;;;;;;5033212;28;20026;-79
2022/01/02 06:59:31;;;;;;;150.93;19.48;;;5.20;99.90;;;;;;5032878;28;20029;-79
2022/01/02 07:02:10;;;;;;;24.38;16.23;;;5.10;99.90;;;;;;5014704;28;20128;-79
2022/01/02 07:04:36;;;;;;;75.43;16.75;;;5.20;99.90;;;;;;5034298;28;20021;-79
2022/01/02 07:07:02;;;;;;;116.65;17.35;;;5.30;99.90;;;;;;5040545;28;20109;-78
2022/01/02 07:09:31;;;;;;;102.28;18.92;;;5.20;99.90;;;;;;5035488;28;20041;-79
2022/01/02 07:11:58;;;;;;;307.38;24.80;;;5.20;99.90;;;;;;5041368;28;20022;-79
2022/01/02 07:14:27;;;;;;;61.60;18.83;;;5.30;99.90;;;;;;5036277;28;20054;-79
2022/01/02 07:16:58;;;;;;;98.47;19.65;;;5.30;99.90;;;;;;5048975;28;20052;-79
2022/01/02 07:19:27;;;;;;;67.47;18.58;;;5.30;99.90;;;;;;5022653;28;20029;-79
2022/01/02 07:21:53;;;;;;;69.65;18.05;;;5.40;99.90;;;;;;5032666;28;20668;-79
2022/01/02 07:24:47;;;;;;;;;;;;;;;;;;;;;
2022/01/02 07:27:14;;;;;;;228.35;21.05;;;5.40;99.90;;;;;;5036979;28;20510;-79
2022/01/02 07:29:42;;;;;;;233.88;22.77;;;5.40;99.90;;;;;;5033766;28;20033;-79
2022/01/02 07:32:08;;;;;;;68.57;17.80;;;5.40;99.90;;;;;;5035327;28;20028;-79
2022/01/02 07:34:34;;;;;;;77.95;17.50;;;5.40;99.90;;;;;;5046425;28;20360;-79
2022/01/02 07:37:03;;;;;;;89.00;18.38;;;5.50;99.90;;;;;;5013712;28;20116;-79
2022/01/02 07:39:29;;;;;;;80.00;16.42;;;5.50;99.90;;;;;;5016792;28;20029;-79
2022/01/02 07:41:55;;;;;;;90.65;16.98;;;5.60;99.90;;;;;;5037235;28;20108;-79
2022/01/02 07:44:21;;;;;;;126.15;18.30;;;5.70;99.90;;;;;;5014779;28;20089;-78
2022/01/02 07:46:56;;;;;;;79.20;16.73;;;5.80;99.90;;;;;;5012131;28;20520;-78
2022/01/02 07:49:22;;;;;;;52.58;16.50;;;5.80;99.90;;;;;;5012948;28;20034;-79
2022/01/02 07:51:48;;;;;;;98.40;18.42;;;5.80;99.90;;;;;;5020501;28;20022;-78
2022/01/02 07:54:14;;;;;;;149.30;18.27;;;5.70;99.90;;;;;;5022139;28;20457;-79
2022/01/02 07:56:40;;;;;;;70.88;19.40;;;5.50;99.90;;;;;;5022498;28;20025;-79
2022/01/02 07:59:06;;;;;;;338.52;26.55;;;5.40;99.90;;;;;;5025084;28;20051;-79
2022/01/02 08:01:33;;;;;;;633.05;42.88;;;5.10;99.90;;;;;;5012520;28;20030;-79
2022/01/02 08:03:59;;;;;;;475.88;40.15;;;4.70;99.90;;;;;;5013105;28;20045;-79
2022/01/02 08:06:24;;;;;;;266.42;37.35;;;4.50;99.90;;;;;;5020741;28;20392;-79
2022/01/02 08:08:50;;;;;;;624.53;45.78;;;4.50;99.90;;;;;;5002429;28;20056;-79
2022/01/02 08:11:17;;;;;;;510.17;44.97;;;4.60;99.90;;;;;;5018508;28;20709;-78
2022/01/02 08:13:44;;;;;;;664.85;54.83;;;4.60;99.90;;;;;;5011283;28;20022;-79
2022/01/02 08:16:11;;;;;;;509.52;50.47;;;4.60;99.90;;;;;;5019890;28;20030;-79
2022/01/02 08:18:38;;;;;;;478.75;50.67;;;4.60;99.90;;;;;;5009290;28;20102;-79
2022/01/02 08:21:04;;;;;;;418.50;48.78;;;4.70;99.90;;;;;;5021972;28;20029;-79
2022/01/02 08:23:29;;;;;;;239.10;41.80;;;4.70;99.90;;;;;;5011594;28;20029;-79
2022/01/02 08:25:55;;;;;;;138.68;41.13;;;4.70;99.90;;;;;;5016479;28;20464;-79
2022/01/02 08:28:21;;;;;;;72.38;39.42;;;4.80;99.90;;;;;;5028565;28;20538;-79
2022/01/02 08:30:47;;;;;;;200.57;43.33;;;4.90;99.90;;;;;;5020259;28;20476;-79
2022/01/02 08:33:14;;;;;;;87.18;42.05;;;4.90;99.90;;;;;;5011009;28;20093;-79
2022/01/02 08:35:51;;;;;;;74.80;40.25;;;4.90;99.90;;;;;;5017953;28;20041;-79
2022/01/02 08:38:17;;;;;;;72.18;38.40;;;4.90;99.90;;;;;;4991831;28;20089;-79
2022/01/02 08:40:43;;;;;;;59.30;35.67;;;5.10;99.90;;;;;;5010652;28;20072;-79
2022/01/02 08:43:09;;;;;;;73.07;34.03;;;5.20;99.90;;;;;;5038620;28;20040;-79
2022/01/02 08:45:36;;;;;;;50.17;31.65;;;5.30;99.90;;;;;;5045098;28;20021;-78
2022/01/02 08:48:03;;;;;;;46.38;30.00;;;5.40;99.90;;;;;;5029575;28;20515;-77
2022/01/02 08:50:29;;;;;;;52.53;30.67;;;5.40;99.90;;;;;;5011332;28;20084;-78
2022/01/02 08:52:55;;;;;;;39.22;26.55;;;5.60;99.90;;;;;;5028124;28;20022;-79
2022/01/02 08:55:20;;;;;;;40.92;26.15;;;5.70;99.90;;;;;;5042090;28;20032;-80
2022/01/02 08:57:46;;;;;;;41.70;26.73;;;5.70;99.90;;;;;;5032714;28;20043;-80
2022/01/02 09:00:13;;;;;;;29.73;23.05;;;5.70;99.90;;;;;;5037487;28;20026;-79
2022/01/02 09:02:39;;;;;;;31.10;22.85;;;5.80;99.90;;;;;;5010271;28;20488;-80
2022/01/02 09:05:06;;;;;;;33.20;20.30;;;5.90;99.90;;;;;;5033549;28;20040;-80
2022/01/02 09:07:33;;;;;;;28.13;21.88;;;6.10;99.90;;;;;;5053258;28;20514;-80
2022/01/02 09:09:59;;;;;;;25.70;20.10;;;6.30;99.90;;;;;;5043438;28;20028;-80
2022/01/02 09:12:24;;;;;;;26.90;17.48;;;6.50;99.90;;;;;;5049112;28;20511;-80
2022/01/02 09:14:50;;;;;;;26.60;19.63;;;6.60;99.90;;;;;;5045762;28;20025;-80
2022/01/02 09:17:16;;;;;;;35.28;20.88;;;6.70;99.90;;;;;;5033719;28;20037;-79
2022/01/02 09:19:42;;;;;;;31.25;20.73;;;6.70;99.90;;;;;;5014010;28;20120;-80
2022/01/02 09:22:07;;;;;;;33.08;22.50;;;6.70;99.90;;;;;;5033347;28;20040;-80
2022/01/02 09:24:33;;;;;;;34.83;21.55;;;6.70;99.90;;;;;;5037977;28;20120;-80
2022/01/02 09:26:59;;;;;;;30.27;21.65;;;6.70;99.90;;;;;;5032310;28;20033;-80
2022/01/02 09:29:25;;;;;;;35.20;23.42;;;6.60;99.90;;;;;;5017322;28;20435;-79
2022/01/02 09:31:51;;;;;;;31.55;23.40;;;6.60;99.90;;;;;;5032708;28;20048;-80
2022/01/02 09:34:17;;;;;;;33.00;23.95;;;6.60;99.90;;;;;;5037132;28;20021;-78
2022/01/02 09:36:43;;;;;;;34.90;23.50;;;6.60;99.90;;;;;;5051919;28;20051;-78
2022/01/02 09:39:09;;;;;;;36.20;23.73;;;6.70;99.90;;;;;;5048913;28;20223;-77
2022/01/02 09:41:35;;;;;;;36.05;24.52;;;6.80;99.90;;;;;;5017179;28;20030;-78
2022/01/02 09:44:01;;;;;;;38.88;25.95;;;6.80;99.90;;;;;;5034792;28;20060;-79
2022/01/02 09:46:28;;;;;;;41.95;25.85;;;6.90;99.90;;;;;;5052170;28;20021;-78
2022/01/02 09:48:57;;;;;;;36.78;25.92;;;6.90;99.90;;;;;;5051605;28;20518;-78
2022/01/02 09:51:26;;;;;;;37.03;25.05;;;7.00;99.90;;;;;;5037597;28;20029;-79
2022/01/02 09:53:54;;;;;;;32.80;23.80;;;7.10;99.90;;;;;;5034430;28;20057;-80
2022/01/02 09:56:32;;;;;;;30.85;23.60;;;7.10;99.90;;;;;;5046583;28;20118;-77
2022/01/02 09:58:57;;;;;;;36.10;25.65;;;7.20;99.90;;;;;;5050326;28;20037;-78
2022/01/02 10:01:25;;;;;;;32.88;23.08;;;7.20;99.90;;;;;;5034900;28;20079;-78
2022/01/02 10:03:57;;;;;;;32.17;23.73;;;7.30;99.90;;;;;;5032848;28;20044;-77
2022/01/02 10:06:47;;;;;;;29.45;22.90;;;7.30;99.90;;;;;;5046896;28;20021;-82
2022/01/02 10:09:30;;;;;;;28.88;22.60;;;7.30;99.90;;;;;;5049381;28;20029;-78
2022/01/02 10:12:14;;;;;;;;;;;7.30;99.90;;;;;;5013853;28;20456;-81
2022/01/02 10:14:40;;;;;;;34.22;22.20;;;7.20;99.90;;;;;;5017063;28;19916;-80
2022/01/02 10:17:06;;;;;;;32.22;22.92;;;7.20;99.90;;;;;;5006851;28;20029;-79
2022/01/02 10:19:36;;;;;;;29.42;20.73;;;7.20;99.90;;;;;;5038535;28;20382;-80
2022/01/02 10:22:09;;;;;;;29.08;20.38;;;7.20;99.90;;;;;;5052180;28;20674;-80
2022/01/02 10:24:37;;;;;;;29.25;21.17;;;7.30;99.90;;;;;;5046122;28;20033;-79
2022/01/02 10:27:08;;;;;;;32.40;20.85;;;7.40;99.90;;;;;;5051898;28;20537;-79
2022/01/02 10:30:01;;;;;;;23.38;18.00;;;7.50;99.90;;;;;;5045985;28;20076;-79
2022/01/02 10:32:27;;;;;;;27.38;19.90;;;7.60;99.90;;;;;;5033713;28;20037;-79
2022/01/02 10:35:13;;;;;;;26.95;21.02;;;7.70;99.90;;;;;;5031299;28;20087;-79
2022/01/02 10:37:41;;;;;;;30.98;21.23;;;7.70;99.90;;;;;;5049778;28;20031;-79
2022/01/02 10:40:34;;;;;;;31.48;21.67;;;7.70;99.90;;;;;;5041866;28;20500;-77
2022/01/02 10:43:27;;;;;;;33.30;21.90;;;7.70;99.90;;;;;;5032650;28;20053;-77
2022/01/02 10:45:55;;;;;;;41.45;25.80;;;7.60;99.90;;;;;;5031508;28;20087;-78
2022/01/02 10:48:36;;;;;;;34.95;25.92;;;7.70;99.90;;;;;;5032973;28;20086;-77
2022/01/02 10:51:03;;;;;;;42.03;28.23;;;7.70;99.90;;;;;;5033839;28;20032;-77
2022/01/02 10:53:30;;;;;;;41.03;28.30;;;7.80;99.90;;;;;;5032908;28;20014;-80
2022/01/02 10:55:56;;;;;;;40.60;27.48;;;7.70;99.90;;;;;;5018015;28;20387;-78
2022/01/02 10:58:27;;;;;;;43.40;26.23;;;7.90;99.90;;;;;;5052695;28;20071;-78
2022/01/02 11:00:55;;;;;;;37.17;25.63;;;7.90;99.90;;;;;;5048203;28;20036;-78
2022/01/02 11:03:24;;;;;;;37.85;26.35;;;8.10;99.90;;;;;;5052348;28;20554;-78
2022/01/02 11:05:58;;;;;;;36.83;23.92;;;8.20;99.90;;;;;;5048982;28;20466;-81
2022/01/02 11:08:30;;;;;;;42.42;24.45;;;8.30;99.90;;;;;;5052508;28;20025;-81
2022/01/02 11:10:56;;;;;;;133.88;79.00;;;8.50;99.90;;;;;;5035684;28;20079;-78
2022/01/02 11:13:24;;;;;;;503.95;244.25;;;8.50;99.90;;;;;;5032312;28;20075;-81
2022/01/02 11:15:50;;;;;;;676.30;348.02;;;8.50;99.90;;;;;;5045003;28;20025;-80
2022/01/02 11:18:16;;;;;;;136.88;67.35;;;8.50;99.90;;;;;;5032110;28;20037;-79
2022/01/02 11:20:43;;;;;;;59.13;34.20;;;8.40;99.90;;;;;;5046474;28;20484;-80
2022/01/02 11:23:41;;;;;;;50.25;28.35;;;8.40;99.90;;;;;;5052022;28;20139;-79
2022/01/02 11:26:17;;;;;;;40.63;24.75;;;8.50;99.90;;;;;;5049295;28;20454;-78
2022/01/02 11:28:48;;;;;;;38.63;23.60;;;8.60;99.90;;;;;;5049698;28;20029;-78
2022/01/02 11:31:32;;;;;;;33.58;23.13;;;8.80;99.90;;;;;;5047868;28;20021;-78
2022/01/02 11:33:59;;;;;;;51.50;31.38;;;9.00;99.90;;;;;;5031087;28;20472;-78
2022/01/02 11:36:35;;;;;;;34.33;22.60;;;9.10;99.90;;;;;;5033314;28;20055;-78
2022/01/02 11:39:06;;;;;;;41.60;25.23;;;9.20;99.90;;;;;;5032434;28;20052;-78
2022/01/02 11:41:44;;;;;;;32.25;21.30;;;9.40;99.90;;;;;;5037669;28;20091;-79
2022/01/02 11:44:15;;;;;;;33.00;22.20;;;9.30;99.90;;;;;;5039967;28;20160;-79
2022/01/02 11:46:52;;;;;;;95.03;49.67;;;9.20;99.90;;;;;;5012221;28;20109;-79
2022/01/02 11:49:40;;;;;;;50.28;32.63;;;9.10;99.90;;;;;;5004884;28;20090;-79
2022/01/02 11:52:08;;;;;;;70.43;39.88;;;9.20;99.90;;;;;;5021422;28;20026;-80
2022/01/02 11:54:40;;;;;;;55.58;34.00;;;9.20;99.90;;;;;;4996065;28;20022;-79
2022/01/02 11:57:14;;;;;;;48.60;29.73;;;9.10;99.90;;;;;;4987002;28;20503;-78
2022/01/02 11:59:43;;;;;;;36.83;24.88;;;9.20;99.90;;;;;;5017279;28;20388;-78
2022/01/02 12:02:09;;;;;;;43.88;26.52;;;9.10;99.90;;;;;;5004335;28;20034;-78
2022/01/02 12:05:02;;;;;;;47.22;28.30;;;9.10;99.90;;;;;;5017276;28;20499;-78
2022/01/02 12:07:37;;;;;;;54.78;31.65;;;9.10;99.90;;;;;;5013013;28;20406;-78
2022/01/02 12:10:19;;;;;;;51.03;31.10;;;9.10;99.90;;;;;;5027702;28;20368;-78
2022/01/02 12:13:00;;;;;;;51.28;33.03;;;9.10;99.90;;;;;;5013006;28;20032;-77
2022/01/02 12:15:34;;;;;;;55.15;33.38;;;9.00;99.90;;;;;;5027571;28;20028;-78
2022/01/02 12:18:31;;;;;;;46.70;30.67;;;8.90;99.90;;;;;;5012150;28;20096;-78
2022/01/02 12:20:57;;;;;;;82.65;43.47;;;8.90;99.90;;;;;;5013101;28;20464;-77
2022/01/02 12:23:32;;;;;;;41.22;29.85;;;8.90;99.90;;;;;;5011472;28;20081;-77
2022/01/02 12:26:02;;;;;;;46.90;28.42;;;8.90;99.90;;;;;;5014251;28;20026;-78
2022/01/02 12:28:37;;;;;;;36.45;26.35;;;8.80;99.90;;;;;;5012792;28;20033;-78
2022/01/02 12:31:04;;;;;;;48.05;30.35;;;8.80;99.90;;;;;;5013407;28;20484;-78
2022/01/02 12:33:31;;;;;;;43.80;28.40;;;8.70;99.90;;;;;;5011017;28;20033;-78
2022/01/02 12:36:07;;;;;;;68.63;40.85;;;8.70;99.90;;;;;;5026032;28;20024;-78
2022/01/02 12:38:51;;;;;;;57.22;36.30;;;8.60;99.90;;;;;;5013443;28;20384;-80
2022/01/02 12:41:19;;;;;;;39.75;28.02;;;8.50;99.90;;;;;;5014974;28;20088;-78
2022/01/02 12:44:03;;;;;;;46.50;30.95;;;8.50;99.90;;;;;;5014971;28;20058;-79
2022/01/02 12:46:34;;;;;;;55.47;31.85;;;8.30;99.90;;;;;;5033380;28;20380;-79
2022/01/02 12:49:03;;;;;;;60.17;37.75;;;8.20;99.90;;;;;;5014045;28;20017;-78
2022/01/02 12:51:33;;;;;;;44.67;31.05;;;8.20;99.90;;;;;;5016588;28;20057;-79
2022/01/02 12:54:03;;;;;;;45.17;32.17;;;8.30;99.90;;;;;;4998304;28;20029;-79
2022/01/02 12:56:42;;;;;;;45.35;33.15;;;8.30;99.90;;;;;;5022559;28;20466;-80
2022/01/02 12:59:21;;;;;;;50.50;33.10;;;8.40;99.90;;;;;;5031058;28;20038;-79
2022/01/02 13:01:56;;;;;;;43.92;32.83;;;8.40;99.90;;;;;;4978718;28;20053;-79
2022/01/02 13:04:23;;;;;;;45.92;32.92;;;8.50;99.90;;;;;;4987764;28;20037;-79
2022/01/02 13:06:54;;;;;;;44.38;32.03;;;8.60;99.90;;;;;;5033692;28;20105;-79
2022/01/02 13:09:31;;;;;;;48.88;32.50;;;8.80;99.90;;;;;;5011451;28;20153;-79
2022/01/02 13:11:57;;;;;;;46.53;32.88;;;8.90;99.90;;;;;;5033801;28;20026;-78
2022/01/02 13:14:38;;;;;;;45.47;33.80;;;8.90;99.90;;;;;;5029128;28;20388;-80
2022/01/02 13:17:24;;;;;;;46.17;33.58;;;8.90;99.90;;;;;;5033289;28;20044;-80
2022/01/02 13:19:57;;;;;;;54.65;36.83;;;9.00;99.90;;;;;;5025376;28;20018;-79
2022/01/02 13:22:26;;;;;;;56.92;37.85;;;8.80;99.90;;;;;;5014909;28;20317;-79
2022/01/02 13:24:53;;;;;;;53.78;38.60;;;8.60;99.90;;;;;;5022239;28;20055;-79
2022/01/02 13:27:28;;;;;;;56.30;38.20;;;8.70;99.90;;;;;;5033663;28;20464;-79
2022/01/02 13:29:56;;;;;;;59.63;40.45;;;8.90;99.90;;;;;;5029729;28;20113;-79
2022/01/02 13:32:22;;;;;;;53.42;35.92;;;9.10;99.90;;;;;;5033658;28;20057;-79
2022/01/02 13:35:02;;;;;;;49.75;36.10;;;9.20;99.90;;;;;;5025566;28;20460;-78
2022/01/02 13:37:33;;;;;;;51.53;35.03;;;9.30;99.90;;;;;;5015026;28;20076;-78
2022/01/02 13:39:59;;;;;;;47.97;34.05;;;9.40;99.90;;;;;;5022899;28;20026;-78
2022/01/02 13:42:42;;;;;;;46.05;32.65;;;9.40;99.90;;;;;;5017128;28;20044;-78
2022/01/02 13:45:11;;;;;;;;;;;9.40;99.90;;;;;;5033250;28;20052;-79
2022/01/02 13:47:42;;;;;;;49.25;33.90;;;9.50;99.90;;;;;;5035498;28;20057;-79
2022/01/02 13:50:09;;;;;;;51.47;35.33;;;9.50;99.90;;;;;;5021155;28;20092;-78
2022/01/02 13:52:53;;;;;;;49.22;32.92;;;9.50;99.90;;;;;;5043444;28;20024;-78
2022/01/02 13:55:19;;;;;;;53.47;35.58;;;9.60;99.90;;;;;;5040737;28;20476;-78
2022/01/02 13:57:45;;;;;;;54.38;35.70;;;9.60;99.90;;;;;;5034144;28;20100;-80
2022/01/02 14:00:25;;;;;;;55.72;37.72;;;9.60;99.90;;;;;;5035184;28;20125;-79
2022/01/02 14:02:54;;;;;;;57.50;39.35;;;9.50;99.90;;;;;;5033974;28;20037;-80
2022/01/02 14:05:41;;;;;;;54.83;39.70;;;9.50;99.90;;;;;;5035129;28;20682;-79
2022/01/02 14:08:15;;;;;;;61.92;41.78;;;9.50;99.90;;;;;;5053005;28;20028;-79